sensor_id;sensor_type;location;lat;lon;timestamp;P1;durP1;ratioP1;P2;durP2;ratioP2
75682;SDS011;64295;44.772;39.872;2022-11-20T00:01:10;9.10;;;4.75;;
75682;SDS011;64295;44.772;39.872;2022-11-20T00:03:37;10.18;;;5.85;;
75682;SDS011;64295;44.772;39.872;2022-11-20T00:06:05;13.00;;;6.00;;
75682;SDS011;64295;44.772;39.872;2022-11-20T00:08:35;13.00;;;6.03;;
75682;SDS011;64295;44.772;39.872;2022-11-20T00:11:04;10.00;;;4.78;;
75682;SDS011;64295;44.772;39.872;2022-11-20T00:13:31;11.52;;;5.47;;
75682;SDS011;64295;44.772;39.872;2022-11-20T00:15:58;11.80;;;4.47;;
75682;SDS011;64295;44.772;39.872;2022-11-20T00:18:26;11.60;;;5.25;;
75682;SDS011;64295;44.772;39.872;2022-11-20T00:20:52;11.90;;;5.35;;
75682;SDS011;64295;44.772;39.872;2022-11-20T00:23:18;9.20;;;5.28;;
75682;SDS011;64295;44.772;39.872;2022-11-20T00:25:44;12.57;;;4.82;;
75682;SDS011;64295;44.772;39.872;2022-11-20T00:31:19;9.95;;;5.20;;
75682;SDS011;64295;44.772;39.872;2022-11-20T00:33:45;7.88;;;4.35;;
75682;SDS011;64295;44.772;39.872;2022-11-20T00:36:13;8.02;;;4.72;;
75682;SDS011;64295;44.772;39.872;2022-11-20T00:38:41;11.02;;;5.53;;
75682;SDS011;64295;44.772;39.872;2022-11-20T00:41:08;8.88;;;4.82;;
75682;SDS011;64295;44.772;39.872;2022-11-20T00:43:36;9.73;;;4.80;;
75682;SDS011;64295;44.772;39.872;2022-11-20T00:46:24;11.77;;;4.35;;
75682;SDS011;64295;44.772;39.872;2022-11-20T00:48:50;8.25;;;4.57;;
75682;SDS011;64295;44.772;39.872;2022-11-20T00:51:18;8.38;;;4.25;;
75682;SDS011;64295;44.772;39.872;2022-11-20T00:53:45;9.65;;;4.97;;
75682;SDS011;64295;44.772;39.872;2022-11-20T00:56:13;8.57;;;4.72;;
75682;SDS011;64295;44.772;39.872;2022-11-20T00:58:40;10.07;;;3.85;;
75682;SDS011;64295;44.772;39.872;2022-11-20T01:01:12;10.48;;;4.70;;
75682;SDS011;64295;44.772;39.872;2022-11-20T01:03:47;8.38;;;4.35;;
75682;SDS011;64295;44.772;39.872;2022-11-20T01:06:15;10.50;;;4.50;;
75682;SDS011;64295;44.772;39.872;2022-11-20T01:08:43;10.40;;;4.75;;
75682;SDS011;64295;44.772;39.872;2022-11-20T01:11:11;9.63;;;4.65;;
75682;SDS011;64295;44.772;39.872;2022-11-20T01:13:39;11.15;;;4.57;;
75682;SDS011;64295;44.772;39.872;2022-11-20T01:16:13;6.97;;;4.00;;
75682;SDS011;64295;44.772;39.872;2022-11-20T01:18:48;9.07;;;4.63;;
75682;SDS011;64295;44.772;39.872;2022-11-20T01:21:16;12.68;;;4.88;;
75682;SDS011;64295;44.772;39.872;2022-11-20T01:23:43;7.50;;;4.63;;
75682;SDS011;64295;44.772;39.872;2022-11-20T01:26:13;11.48;;;5.15;;
75682;SDS011;64295;44.772;39.872;2022-11-20T01:28:41;10.48;;;4.88;;
75682;SDS011;64295;44.772;39.872;2022-11-20T01:31:22;7.22;;;4.57;;
75682;SDS011;64295;44.772;39.872;2022-11-20T01:34:00;9.15;;;4.75;;
75682;SDS011;64295;44.772;39.872;2022-11-20T01:36:31;12.50;;;4.65;;
75682;SDS011;64295;44.772;39.872;2022-11-20T01:39:00;9.55;;;5.38;;
75682;SDS011;64295;44.772;39.872;2022-11-20T01:41:30;12.93;;;4.95;;
75682;SDS011;64295;44.772;39.872;2022-11-20T01:44:16;9.15;;;5.40;;
75682;SDS011;64295;44.772;39.872;2022-11-20T01:47:02;11.13;;;5.47;;
75682;SDS011;64295;44.772;39.872;2022-11-20T01:49:38;9.70;;;4.63;;
75682;SDS011;64295;44.772;39.872;2022-11-20T01:52:11;10.25;;;5.10;;
75682;SDS011;64295;44.772;39.872;2022-11-20T01:54:47;10.57;;;5.30;;
75682;SDS011;64295;44.772;39.872;2022-11-20T01:57:17;9.13;;;5.00;;
75682;SDS011;64295;44.772;39.872;2022-11-20T01:59:47;9.85;;;4.93;;
75682;SDS011;64295;44.772;39.872;2022-11-20T02:02:19;12.38;;;5.53;;
75682;SDS011;64295;44.772;39.872;2022-11-20T02:04:47;11.35;;;6.35;;
75682;SDS011;64295;44.772;39.872;2022-11-20T02:07:14;12.77;;;6.07;;
75682;SDS011;64295;44.772;39.872;2022-11-20T02:09:41;14.25;;;6.57;;
75682;SDS011;64295;44.772;39.872;2022-11-20T02:12:07;13.30;;;6.72;;
75682;SDS011;64295;44.772;39.872;2022-11-20T02:14:53;15.38;;;6.53;;
75682;SDS011;64295;44.772;39.872;2022-11-20T02:17:19;14.38;;;6.55;;
75682;SDS011;64295;44.772;39.872;2022-11-20T02:19:46;11.82;;;6.20;;
75682;SDS011;64295;44.772;39.872;2022-11-20T02:22:18;14.80;;;5.90;;
75682;SDS011;64295;44.772;39.872;2022-11-20T02:24:51;10.70;;;6.45;;
75682;SDS011;64295;44.772;39.872;2022-11-20T02:27:18;14.27;;;6.85;;
75682;SDS011;64295;44.772;39.872;2022-11-20T02:29:57;12.18;;;6.10;;
75682;SDS011;64295;44.772;39.872;2022-11-20T02:32:37;9.18;;;6.18;;
75682;SDS011;64295;44.772;39.872;2022-11-20T02:38:15;13.38;;;5.75;;
75682;SDS011;64295;44.772;39.872;2022-11-20T02:40:42;14.52;;;6.82;;
75682;SDS011;64295;44.772;39.872;2022-11-20T02:43:09;12.40;;;5.85;;
75682;SDS011;64295;44.772;39.872;2022-11-20T02:45:35;14.27;;;5.95;;
75682;SDS011;64295;44.772;39.872;2022-11-20T02:48:01;12.95;;;5.93;;
75682;SDS011;64295;44.772;39.872;2022-11-20T02:50:27;10.15;;;5.90;;
75682;SDS011;64295;44.772;39.872;2022-11-20T02:52:53;15.07;;;7.35;;
75682;SDS011;64295;44.772;39.872;2022-11-20T02:55:19;18.15;;;8.00;;
75682;SDS011;64295;44.772;39.872;2022-11-20T02:57:45;13.50;;;8.25;;
75682;SDS011;64295;44.772;39.872;2022-11-20T03:00:11;14.00;;;7.05;;
75682;SDS011;64295;44.772;39.872;2022-11-20T03:02:37;13.20;;;7.38;;
75682;SDS011;64295;44.772;39.872;2022-11-20T03:05:03;18.40;;;8.43;;
75682;SDS011;64295;44.772;39.872;2022-11-20T03:07:29;15.80;;;7.80;;
75682;SDS011;64295;44.772;39.872;2022-11-20T03:10:00;15.55;;;8.13;;
75682;SDS011;64295;44.772;39.872;2022-11-20T03:12:28;16.00;;;8.25;;
75682;SDS011;64295;44.772;39.872;2022-11-20T03:15:00;18.38;;;9.18;;
75682;SDS011;64295;44.772;39.872;2022-11-20T03:17:32;24.35;;;9.77;;
75682;SDS011;64295;44.772;39.872;2022-11-20T03:19:58;23.15;;;10.52;;
75682;SDS011;64295;44.772;39.872;2022-11-20T03:22:28;17.50;;;8.13;;
75682;SDS011;64295;44.772;39.872;2022-11-20T03:24:55;20.73;;;9.93;;
75682;SDS011;64295;44.772;39.872;2022-11-20T03:27:21;21.35;;;8.80;;
75682;SDS011;64295;44.772;39.872;2022-11-20T03:29:47;18.52;;;8.63;;
75682;SDS011;64295;44.772;39.872;2022-11-20T03:32:13;16.45;;;7.20;;
75682;SDS011;64295;44.772;39.872;2022-11-20T03:34:38;19.17;;;8.25;;
75682;SDS011;64295;44.772;39.872;2022-11-20T03:37:14;18.83;;;9.05;;
75682;SDS011;64295;44.772;39.872;2022-11-20T03:39:40;19.67;;;8.90;;
75682;SDS011;64295;44.772;39.872;2022-11-20T03:42:06;20.83;;;8.88;;
75682;SDS011;64295;44.772;39.872;2022-11-20T03:44:54;17.70;;;8.10;;
75682;SDS011;64295;44.772;39.872;2022-11-20T03:47:20;16.45;;;8.00;;
75682;SDS011;64295;44.772;39.872;2022-11-20T03:49:46;18.17;;;8.15;;
75682;SDS011;64295;44.772;39.872;2022-11-20T03:52:12;12.30;;;7.38;;
75682;SDS011;64295;44.772;39.872;2022-11-20T03:54:37;17.45;;;7.55;;
75682;SDS011;64295;44.772;39.872;2022-11-20T03:57:03;18.80;;;9.02;;
75682;SDS011;64295;44.772;39.872;2022-11-20T03:59:29;17.33;;;8.40;;
75682;SDS011;64295;44.772;39.872;2022-11-20T04:01:55;16.02;;;7.97;;
75682;SDS011;64295;44.772;39.872;2022-11-20T04:04:21;19.63;;;8.75;;
75682;SDS011;64295;44.772;39.872;2022-11-20T04:06:47;18.30;;;7.95;;
75682;SDS011;64295;44.772;39.872;2022-11-20T04:09:13;19.05;;;8.85;;
75682;SDS011;64295;44.772;39.872;2022-11-20T04:11:39;21.77;;;8.50;;
75682;SDS011;64295;44.772;39.872;2022-11-20T04:14:06;16.67;;;8.20;;
75682;SDS011;64295;44.772;39.872;2022-11-20T04:16:37;19.58;;;8.70;;
75682;SDS011;64295;44.772;39.872;2022-11-20T04:19:04;18.13;;;8.82;;
75682;SDS011;64295;44.772;39.872;2022-11-20T04:21:32;19.17;;;8.35;;
75682;SDS011;64295;44.772;39.872;2022-11-20T04:23:58;23.33;;;10.38;;
75682;SDS011;64295;44.772;39.872;2022-11-20T04:26:26;18.35;;;9.43;;
75682;SDS011;64295;44.772;39.872;2022-11-20T04:28:53;19.85;;;9.27;;
75682;SDS011;64295;44.772;39.872;2022-11-20T04:31:24;18.83;;;7.90;;
75682;SDS011;64295;44.772;39.872;2022-11-20T04:33:52;20.15;;;8.88;;
75682;SDS011;64295;44.772;39.872;2022-11-20T04:36:19;20.33;;;8.10;;
75682;SDS011;64295;44.772;39.872;2022-11-20T04:38:51;21.42;;;9.05;;
75682;SDS011;64295;44.772;39.872;2022-11-20T04:41:21;23.20;;;9.23;;
75682;SDS011;64295;44.772;39.872;2022-11-20T04:43:49;23.77;;;9.50;;
75682;SDS011;64295;44.772;39.872;2022-11-20T04:46:17;20.17;;;9.27;;
75682;SDS011;64295;44.772;39.872;2022-11-20T04:48:44;28.02;;;13.07;;
75682;SDS011;64295;44.772;39.872;2022-11-20T04:51:11;25.92;;;12.10;;
75682;SDS011;64295;44.772;39.872;2022-11-20T04:53:37;26.40;;;12.13;;
75682;SDS011;64295;44.772;39.872;2022-11-20T04:56:05;30.23;;;11.15;;
75682;SDS011;64295;44.772;39.872;2022-11-20T04:58:35;27.00;;;11.30;;
75682;SDS011;64295;44.772;39.872;2022-11-20T05:01:02;23.40;;;10.20;;
75682;SDS011;64295;44.772;39.872;2022-11-20T05:03:32;30.10;;;12.63;;
75682;SDS011;64295;44.772;39.872;2022-11-20T05:06:02;25.02;;;11.38;;
75682;SDS011;64295;44.772;39.872;2022-11-20T05:08:29;26.80;;;10.02;;
75682;SDS011;64295;44.772;39.872;2022-11-20T05:11:03;24.30;;;10.07;;
75682;SDS011;64295;44.772;39.872;2022-11-20T05:13:30;22.42;;;8.63;;
75682;SDS011;64295;44.772;39.872;2022-11-20T05:16:04;19.38;;;10.05;;
75682;SDS011;64295;44.772;39.872;2022-11-20T05:18:32;26.42;;;9.73;;
75682;SDS011;64295;44.772;39.872;2022-11-20T05:20:59;22.88;;;9.25;;
75682;SDS011;64295;44.772;39.872;2022-11-20T05:23:26;21.02;;;9.68;;
75682;SDS011;64295;44.772;39.872;2022-11-20T05:25:54;28.52;;;10.70;;
75682;SDS011;64295;44.772;39.872;2022-11-20T05:28:22;20.48;;;8.98;;
75682;SDS011;64295;44.772;39.872;2022-11-20T05:30:48;23.95;;;10.15;;
75682;SDS011;64295;44.772;39.872;2022-11-20T05:33:15;18.02;;;8.75;;
75682;SDS011;64295;44.772;39.872;2022-11-20T05:35:41;25.38;;;9.63;;
75682;SDS011;64295;44.772;39.872;2022-11-20T05:38:07;21.90;;;9.85;;
75682;SDS011;64295;44.772;39.872;2022-11-20T05:40:33;23.73;;;9.85;;
75682;SDS011;64295;44.772;39.872;2022-11-20T05:42:59;23.48;;;10.68;;
75682;SDS011;64295;44.772;39.872;2022-11-20T05:45:25;23.52;;;10.13;;
75682;SDS011;64295;44.772;39.872;2022-11-20T05:47:51;27.92;;;10.68;;
75682;SDS011;64295;44.772;39.872;2022-11-20T05:50:17;26.50;;;11.20;;
75682;SDS011;64295;44.772;39.872;2022-11-20T05:52:43;31.70;;;10.77;;
75682;SDS011;64295;44.772;39.872;2022-11-20T05:55:09;41.13;;;14.23;;
75682;SDS011;64295;44.772;39.872;2022-11-20T05:57:36;28.73;;;12.43;;
75682;SDS011;64295;44.772;39.872;2022-11-20T06:00:03;21.92;;;8.93;;
75682;SDS011;64295;44.772;39.872;2022-11-20T06:02:29;24.40;;;11.00;;
75682;SDS011;64295;44.772;39.872;2022-11-20T06:04:55;23.65;;;10.27;;
75682;SDS011;64295;44.772;39.872;2022-11-20T06:07:21;27.10;;;10.10;;
75682;SDS011;64295;44.772;39.872;2022-11-20T06:09:47;25.52;;;11.10;;
75682;SDS011;64295;44.772;39.872;2022-11-20T06:12:13;25.55;;;10.63;;
75682;SDS011;64295;44.772;39.872;2022-11-20T06:14:39;18.95;;;9.38;;
75682;SDS011;64295;44.772;39.872;2022-11-20T06:17:05;25.05;;;10.90;;
75682;SDS011;64295;44.772;39.872;2022-11-20T06:19:31;23.10;;;9.60;;
75682;SDS011;64295;44.772;39.872;2022-11-20T06:21:57;25.52;;;10.52;;
75682;SDS011;64295;44.772;39.872;2022-11-20T06:24:23;30.45;;;14.65;;
75682;SDS011;64295;44.772;39.872;2022-11-20T06:26:50;23.25;;;10.27;;
75682;SDS011;64295;44.772;39.872;2022-11-20T06:29:16;21.50;;;8.52;;
75682;SDS011;64295;44.772;39.872;2022-11-20T06:31:42;20.08;;;9.23;;
75682;SDS011;64295;44.772;39.872;2022-11-20T06:34:08;22.33;;;8.88;;
75682;SDS011;64295;44.772;39.872;2022-11-20T06:36:34;22.17;;;9.90;;
75682;SDS011;64295;44.772;39.872;2022-11-20T06:39:00;19.10;;;8.63;;
75682;SDS011;64295;44.772;39.872;2022-11-20T06:41:26;18.33;;;8.63;;
75682;SDS011;64295;44.772;39.872;2022-11-20T06:43:53;21.33;;;8.73;;
75682;SDS011;64295;44.772;39.872;2022-11-20T06:46:19;21.10;;;8.90;;
75682;SDS011;64295;44.772;39.872;2022-11-20T06:48:46;19.27;;;8.32;;
75682;SDS011;64295;44.772;39.872;2022-11-20T06:51:13;13.75;;;7.72;;
75682;SDS011;64295;44.772;39.872;2022-11-20T06:53:39;17.13;;;8.02;;
75682;SDS011;64295;44.772;39.872;2022-11-20T06:56:05;14.38;;;6.78;;
75682;SDS011;64295;44.772;39.872;2022-11-20T06:58:32;12.10;;;6.32;;
75682;SDS011;64295;44.772;39.872;2022-11-20T07:01:05;13.98;;;7.05;;
75682;SDS011;64295;44.772;39.872;2022-11-20T07:03:34;13.88;;;6.00;;
75682;SDS011;64295;44.772;39.872;2022-11-20T07:06:00;17.52;;;7.43;;
75682;SDS011;64295;44.772;39.872;2022-11-20T07:08:27;16.75;;;9.82;;
75682;SDS011;64295;44.772;39.872;2022-11-20T07:10:56;17.67;;;9.60;;
75682;SDS011;64295;44.772;39.872;2022-11-20T07:13:32;12.07;;;6.15;;
75682;SDS011;64295;44.772;39.872;2022-11-20T07:16:02;13.63;;;5.85;;
75682;SDS011;64295;44.772;39.872;2022-11-20T07:18:30;11.02;;;6.57;;
75682;SDS011;64295;44.772;39.872;2022-11-20T07:20:59;11.48;;;6.57;;
75682;SDS011;64295;44.772;39.872;2022-11-20T07:23:26;11.63;;;6.85;;
75682;SDS011;64295;44.772;39.872;2022-11-20T07:25:52;13.05;;;6.22;;
75682;SDS011;64295;44.772;39.872;2022-11-20T07:28:18;13.68;;;5.57;;
75682;SDS011;64295;44.772;39.872;2022-11-20T07:30:49;12.27;;;6.18;;
75682;SDS011;64295;44.772;39.872;2022-11-20T07:33:15;12.80;;;6.60;;
75682;SDS011;64295;44.772;39.872;2022-11-20T07:35:41;10.50;;;6.32;;
75682;SDS011;64295;44.772;39.872;2022-11-20T07:38:07;11.70;;;6.72;;
75682;SDS011;64295;44.772;39.872;2022-11-20T07:40:33;11.10;;;6.28;;
75682;SDS011;64295;44.772;39.872;2022-11-20T07:42:59;13.25;;;6.55;;
75682;SDS011;64295;44.772;39.872;2022-11-20T07:45:25;14.70;;;6.95;;
75682;SDS011;64295;44.772;39.872;2022-11-20T07:47:51;13.05;;;6.07;;
75682;SDS011;64295;44.772;39.872;2022-11-20T07:50:17;13.15;;;5.63;;
75682;SDS011;64295;44.772;39.872;2022-11-20T07:52:44;13.52;;;6.40;;
75682;SDS011;64295;44.772;39.872;2022-11-20T07:55:10;11.65;;;6.57;;
75682;SDS011;64295;44.772;39.872;2022-11-20T07:57:36;9.82;;;5.35;;
75682;SDS011;64295;44.772;39.872;2022-11-20T08:00:03;12.57;;;5.75;;
75682;SDS011;64295;44.772;39.872;2022-11-20T08:02:37;11.85;;;6.32;;
75682;SDS011;64295;44.772;39.872;2022-11-20T08:05:04;21.10;;;10.75;;
75682;SDS011;64295;44.772;39.872;2022-11-20T08:07:35;17.23;;;8.52;;
75682;SDS011;64295;44.772;39.872;2022-11-20T08:10:02;12.88;;;6.35;;
75682;SDS011;64295;44.772;39.872;2022-11-20T08:12:29;13.60;;;7.70;;
75682;SDS011;64295;44.772;39.872;2022-11-20T08:15:13;14.38;;;6.32;;
75682;SDS011;64295;44.772;39.872;2022-11-20T08:17:39;12.40;;;6.65;;
75682;SDS011;64295;44.772;39.872;2022-11-20T08:20:05;14.77;;;5.97;;
75682;SDS011;64295;44.772;39.872;2022-11-20T08:22:31;15.30;;;7.70;;
75682;SDS011;64295;44.772;39.872;2022-11-20T08:24:57;14.48;;;7.00;;
75682;SDS011;64295;44.772;39.872;2022-11-20T08:27:24;17.73;;;8.35;;
75682;SDS011;64295;44.772;39.872;2022-11-20T08:29:50;14.40;;;7.55;;
75682;SDS011;64295;44.772;39.872;2022-11-20T08:32:16;12.60;;;6.80;;
75682;SDS011;64295;44.772;39.872;2022-11-20T08:34:45;13.00;;;6.60;;
75682;SDS011;64295;44.772;39.872;2022-11-20T08:37:11;11.82;;;6.13;;
75682;SDS011;64295;44.772;39.872;2022-11-20T08:39:37;10.32;;;6.10;;
75682;SDS011;64295;44.772;39.872;2022-11-20T08:42:08;10.77;;;5.43;;
75682;SDS011;64295;44.772;39.872;2022-11-20T08:44:34;9.40;;;5.00;;
75682;SDS011;64295;44.772;39.872;2022-11-20T08:47:00;8.75;;;5.25;;
75682;SDS011;64295;44.772;39.872;2022-11-20T08:49:26;7.78;;;5.28;;
75682;SDS011;64295;44.772;39.872;2022-11-20T08:51:52;11.95;;;5.30;;
75682;SDS011;64295;44.772;39.872;2022-11-20T08:54:20;8.45;;;4.63;;
75682;SDS011;64295;44.772;39.872;2022-11-20T08:56:52;11.27;;;5.20;;
75682;SDS011;64295;44.772;39.872;2022-11-20T08:59:18;9.77;;;4.78;;
75682;SDS011;64295;44.772;39.872;2022-11-20T09:01:44;8.30;;;5.90;;
75682;SDS011;64295;44.772;39.872;2022-11-20T09:04:10;9.00;;;5.22;;
75682;SDS011;64295;44.772;39.872;2022-11-20T09:06:36;8.70;;;4.40;;
75682;SDS011;64295;44.772;39.872;2022-11-20T09:09:03;23.85;;;13.63;;
75682;SDS011;64295;44.772;39.872;2022-11-20T09:11:29;5.63;;;4.38;;
75682;SDS011;64295;44.772;39.872;2022-11-20T09:13:54;11.20;;;5.63;;
75682;SDS011;64295;44.772;39.872;2022-11-20T09:16:20;11.43;;;4.88;;
75682;SDS011;64295;44.772;39.872;2022-11-20T09:18:46;6.22;;;4.05;;
75682;SDS011;64295;44.772;39.872;2022-11-20T09:21:16;7.05;;;3.80;;
75682;SDS011;64295;44.772;39.872;2022-11-20T09:23:42;4.80;;;3.75;;
75682;SDS011;64295;44.772;39.872;2022-11-20T09:26:12;7.63;;;3.85;;
75682;SDS011;64295;44.772;39.872;2022-11-20T09:28:39;8.10;;;3.97;;
75682;SDS011;64295;44.772;39.872;2022-11-20T09:31:06;9.40;;;5.18;;
75682;SDS011;64295;44.772;39.872;2022-11-20T09:34:02;10.35;;;4.85;;
75682;SDS011;64295;44.772;39.872;2022-11-20T09:36:28;6.57;;;3.80;;
75682;SDS011;64295;44.772;39.872;2022-11-20T09:38:53;8.38;;;4.18;;
75682;SDS011;64295;44.772;39.872;2022-11-20T09:41:33;8.10;;;3.90;;
75682;SDS011;64295;44.772;39.872;2022-11-20T09:55:41;6.22;;;3.83;;
75682;SDS011;64295;44.772;39.872;2022-11-20T09:58:13;9.23;;;5.18;;
75682;SDS011;64295;44.772;39.872;2022-11-20T10:00:46;6.93;;;4.60;;
75682;SDS011;64295;44.772;39.872;2022-11-20T10:03:17;8.35;;;4.05;;
75682;SDS011;64295;44.772;39.872;2022-11-20T10:05:53;7.60;;;4.13;;
75682;SDS011;64295;44.772;39.872;2022-11-20T10:10:52;7.50;;;4.47;;
75682;SDS011;64295;44.772;39.872;2022-11-20T10:13:36;10.13;;;4.78;;
75682;SDS011;64295;44.772;39.872;2022-11-20T10:22:00;7.70;;;4.15;;
75682;SDS011;64295;44.772;39.872;2022-11-20T10:27:37;9.85;;;4.35;;
75682;SDS011;64295;44.772;39.872;2022-11-20T10:30:11;5.50;;;3.85;;
75682;SDS011;64295;44.772;39.872;2022-11-20T10:32:43;9.75;;;5.10;;
75682;SDS011;64295;44.772;39.872;2022-11-20T10:35:16;10.13;;;4.97;;
75682;SDS011;64295;44.772;39.872;2022-11-20T10:37:59;7.82;;;5.22;;
75682;SDS011;64295;44.772;39.872;2022-11-20T10:43:27;11.98;;;6.78;;
75682;SDS011;64295;44.772;39.872;2022-11-20T10:45:58;10.93;;;5.70;;
75682;SDS011;64295;44.772;39.872;2022-11-20T10:48:29;7.03;;;4.70;;
75682;SDS011;64295;44.772;39.872;2022-11-20T10:51:12;6.65;;;4.50;;
75682;SDS011;64295;44.772;39.872;2022-11-20T10:56:52;8.27;;;4.82;;
75682;SDS011;64295;44.772;39.872;2022-11-20T11:02:00;11.23;;;5.35;;
75682;SDS011;64295;44.772;39.872;2022-11-20T11:07:22;10.23;;;5.47;;
75682;SDS011;64295;44.772;39.872;2022-11-20T11:09:53;7.85;;;5.47;;
75682;SDS011;64295;44.772;39.872;2022-11-20T11:12:21;18.35;;;7.53;;
75682;SDS011;64295;44.772;39.872;2022-11-20T11:14:54;18.02;;;7.95;;
75682;SDS011;64295;44.772;39.872;2022-11-20T11:19:58;11.80;;;5.88;;
75682;SDS011;64295;44.772;39.872;2022-11-20T11:22:43;9.38;;;5.07;;
75682;SDS011;64295;44.772;39.872;2022-11-20T11:28:03;14.00;;;6.63;;
75682;SDS011;64295;44.772;39.872;2022-11-20T11:30:51;13.52;;;6.22;;
75682;SDS011;64295;44.772;39.872;2022-11-20T11:33:24;12.13;;;6.13;;
75682;SDS011;64295;44.772;39.872;2022-11-20T11:35:53;13.80;;;8.02;;
75682;SDS011;64295;44.772;39.872;2022-11-20T11:38:39;12.27;;;6.65;;
75682;SDS011;64295;44.772;39.872;2022-11-20T11:41:13;10.85;;;5.53;;
75682;SDS011;64295;44.772;39.872;2022-11-20T11:43:56;9.50;;;6.10;;
75682;SDS011;64295;44.772;39.872;2022-11-20T11:46:45;15.93;;;6.68;;
75682;SDS011;64295;44.772;39.872;2022-11-20T11:49:18;9.32;;;5.00;;
75682;SDS011;64295;44.772;39.872;2022-11-20T11:52:30;9.15;;;5.53;;
75682;SDS011;64295;44.772;39.872;2022-11-20T11:59:57;12.18;;;5.10;;
75682;SDS011;64295;44.772;39.872;2022-11-20T12:07:48;17.15;;;8.60;;
75682;SDS011;64295;44.772;39.872;2022-11-20T12:16:00;21.55;;;9.88;;
75682;SDS011;64295;44.772;39.872;2022-11-20T12:18:28;22.13;;;9.93;;
75682;SDS011;64295;44.772;39.872;2022-11-20T12:29:47;38.83;;;16.38;;
75682;SDS011;64295;44.772;39.872;2022-11-20T12:41:02;16.42;;;8.68;;
75682;SDS011;64295;44.772;39.872;2022-11-20T12:43:52;14.98;;;8.25;;
75682;SDS011;64295;44.772;39.872;2022-11-20T12:56:19;34.53;;;16.00;;
75682;SDS011;64295;44.772;39.872;2022-11-20T13:00:01;57.35;;;26.52;;
75682;SDS011;64295;44.772;39.872;2022-11-20T13:05:43;78.90;;;38.70;;
75682;SDS011;64295;44.772;39.872;2022-11-20T13:08:36;96.18;;;41.35;;
75682;SDS011;64295;44.772;39.872;2022-11-20T13:16:47;53.17;;;23.25;;
75682;SDS011;64295;44.772;39.872;2022-11-20T13:19:24;44.92;;;20.42;;
75682;SDS011;64295;44.772;39.872;2022-11-20T13:21:51;28.60;;;12.85;;
75682;SDS011;64295;44.772;39.872;2022-11-20T13:29:34;31.92;;;15.32;;
75682;SDS011;64295;44.772;39.872;2022-11-20T13:32:02;40.35;;;16.55;;
75682;SDS011;64295;44.772;39.872;2022-11-20T13:34:39;49.53;;;23.90;;
75682;SDS011;64295;44.772;39.872;2022-11-20T13:37:26;57.58;;;27.35;;
75682;SDS011;64295;44.772;39.872;2022-11-20T13:43:02;54.05;;;24.80;;
75682;SDS011;64295;44.772;39.872;2022-11-20T13:45:36;45.35;;;21.35;;
75682;SDS011;64295;44.772;39.872;2022-11-20T13:48:04;67.20;;;28.55;;
75682;SDS011;64295;44.772;39.872;2022-11-20T13:56:10;68.65;;;29.73;;
75682;SDS011;64295;44.772;39.872;2022-11-20T13:59:02;85.82;;;40.38;;
75682;SDS011;64295;44.772;39.872;2022-11-20T14:01:37;100.70;;;48.40;;
75682;SDS011;64295;44.772;39.872;2022-11-20T14:04:11;86.85;;;42.78;;
75682;SDS011;64295;44.772;39.872;2022-11-20T14:06:44;90.10;;;38.78;;
75682;SDS011;64295;44.772;39.872;2022-11-20T14:09:13;93.15;;;42.55;;
75682;SDS011;64295;44.772;39.872;2022-11-20T14:11:53;86.75;;;41.35;;
75682;SDS011;64295;44.772;39.872;2022-11-20T14:14:20;89.57;;;41.65;;
75682;SDS011;64295;44.772;39.872;2022-11-20T14:16:48;80.13;;;40.90;;
75682;SDS011;64295;44.772;39.872;2022-11-20T14:19:36;83.53;;;41.42;;
75682;SDS011;64295;44.772;39.872;2022-11-20T14:22:15;90.10;;;42.17;;
75682;SDS011;64295;44.772;39.872;2022-11-20T14:24:45;100.00;;;44.53;;
75682;SDS011;64295;44.772;39.872;2022-11-20T14:31:08;253.55;;;107.20;;
75682;SDS011;64295;44.772;39.872;2022-11-20T14:33:54;225.40;;;95.72;;
75682;SDS011;64295;44.772;39.872;2022-11-20T14:36:22;225.82;;;103.40;;
75682;SDS011;64295;44.772;39.872;2022-11-20T14:38:50;213.20;;;99.25;;
75682;SDS011;64295;44.772;39.872;2022-11-20T14:41:21;192.38;;;88.57;;
75682;SDS011;64295;44.772;39.872;2022-11-20T14:43:54;144.27;;;68.15;;
75682;SDS011;64295;44.772;39.872;2022-11-20T14:46:24;125.45;;;57.42;;
75682;SDS011;64295;44.772;39.872;2022-11-20T14:48:52;124.28;;;57.08;;
75682;SDS011;64295;44.772;39.872;2022-11-20T14:51:30;158.05;;;75.63;;
75682;SDS011;64295;44.772;39.872;2022-11-20T14:54:11;167.15;;;79.82;;
75682;SDS011;64295;44.772;39.872;2022-11-20T14:56:37;178.65;;;82.18;;
75682;SDS011;64295;44.772;39.872;2022-11-20T14:59:03;177.40;;;86.55;;
75682;SDS011;64295;44.772;39.872;2022-11-20T15:01:37;168.15;;;79.70;;
75682;SDS011;64295;44.772;39.872;2022-11-20T15:04:06;167.57;;;78.40;;
75682;SDS011;64295;44.772;39.872;2022-11-20T15:06:35;201.82;;;93.88;;
75682;SDS011;64295;44.772;39.872;2022-11-20T15:09:04;195.23;;;90.93;;
75682;SDS011;64295;44.772;39.872;2022-11-20T15:11:38;247.98;;;114.95;;
75682;SDS011;64295;44.772;39.872;2022-11-20T15:14:06;259.65;;;121.25;;
75682;SDS011;64295;44.772;39.872;2022-11-20T15:16:34;229.88;;;108.15;;
75682;SDS011;64295;44.772;39.872;2022-11-20T15:19:01;240.43;;;114.63;;
75682;SDS011;64295;44.772;39.872;2022-11-20T15:21:28;239.13;;;110.45;;
75682;SDS011;64295;44.772;39.872;2022-11-20T15:23:54;232.23;;;110.25;;
75682;SDS011;64295;44.772;39.872;2022-11-20T15:26:22;214.75;;;106.90;;
75682;SDS011;64295;44.772;39.872;2022-11-20T15:28:51;213.25;;;109.03;;
75682;SDS011;64295;44.772;39.872;2022-11-20T15:31:18;241.13;;;114.82;;
75682;SDS011;64295;44.772;39.872;2022-11-20T15:33:46;231.80;;;109.20;;
75682;SDS011;64295;44.772;39.872;2022-11-20T15:36:12;233.02;;;112.20;;
75682;SDS011;64295;44.772;39.872;2022-11-20T15:38:39;222.90;;;109.70;;
75682;SDS011;64295;44.772;39.872;2022-11-20T15:41:06;229.52;;;110.47;;
75682;SDS011;64295;44.772;39.872;2022-11-20T15:43:32;231.75;;;111.07;;
75682;SDS011;64295;44.772;39.872;2022-11-20T15:48:30;234.00;;;114.30;;
75682;SDS011;64295;44.772;39.872;2022-11-20T15:53:37;220.52;;;111.13;;
75682;SDS011;64295;44.772;39.872;2022-11-20T15:56:05;226.57;;;106.68;;
75682;SDS011;64295;44.772;39.872;2022-11-20T15:58:32;207.63;;;97.90;;
75682;SDS011;64295;44.772;39.872;2022-11-20T16:00:57;217.38;;;101.47;;
75682;SDS011;64295;44.772;39.872;2022-11-20T16:03:23;242.82;;;113.13;;
75682;SDS011;64295;44.772;39.872;2022-11-20T16:05:51;230.70;;;108.28;;
75682;SDS011;64295;44.772;39.872;2022-11-20T16:08:17;238.52;;;109.40;;
75682;SDS011;64295;44.772;39.872;2022-11-20T16:10:44;242.98;;;114.43;;
75682;SDS011;64295;44.772;39.872;2022-11-20T16:13:14;251.30;;;112.68;;
75682;SDS011;64295;44.772;39.872;2022-11-20T16:16:01;234.80;;;105.95;;
75682;SDS011;64295;44.772;39.872;2022-11-20T16:18:30;242.55;;;112.75;;
75682;SDS011;64295;44.772;39.872;2022-11-20T16:20:57;237.57;;;113.28;;
75682;SDS011;64295;44.772;39.872;2022-11-20T16:23:23;230.05;;;108.43;;
75682;SDS011;64295;44.772;39.872;2022-11-20T16:25:49;216.20;;;103.00;;
75682;SDS011;64295;44.772;39.872;2022-11-20T16:28:16;220.40;;;104.72;;
75682;SDS011;64295;44.772;39.872;2022-11-20T16:30:42;217.18;;;100.40;;
75682;SDS011;64295;44.772;39.872;2022-11-20T16:33:18;211.23;;;98.18;;